sensor_id;sensor_type;location;lat;lon;timestamp;temperature;humidity
36442;DHT22;64346;50.820;16.274;2023-02-02T00:02:13;3.70;99.90
36442;DHT22;64346;50.820;16.274;2023-02-02T00:04:43;3.70;99.90
36442;DHT22;64346;50.820;16.274;2023-02-02T00:07:10;3.70;99.90
36442;DHT22;64346;50.820;16.274;2023-02-02T00:09:38;3.70;99.90
36442;DHT22;64346;50.820;16.274;2023-02-02T00:12:09;3.60;99.90
36442;DHT22;64346;50.820;16.274;2023-02-02T00:14:51;3.60;99.90
36442;DHT22;64346;50.820;16.274;2023-02-02T00:17:19;3.60;99.90
36442;DHT22;64346;50.820;16.274;2023-02-02T00:19:52;3.60;99.90
36442;DHT22;64346;50.820;16.274;2023-02-02T00:22:22;3.60;99.90
36442;DHT22;64346;50.820;16.274;2023-02-02T00:24:52;3.60;99.90
36442;DHT22;64346;50.820;16.274;2023-02-02T00:27:25;3.60;99.90
36442;DHT22;64346;50.820;16.274;2023-02-02T00:29:52;3.60;99.90
36442;DHT22;64346;50.820;16.274;2023-02-02T00:32:19;3.60;99.90
36442;DHT22;64346;50.820;16.274;2023-02-02T00:34:46;3.60;99.90
36442;DHT22;64346;50.820;16.274;2023-02-02T00:37:14;3.60;99.90
36442;DHT22;64346;50.820;16.274;2023-02-02T00:39:41;3.70;99.90
36442;DHT22;64346;50.820;16.274;2023-02-02T00:42:10;3.70;99.90
36442;DHT22;64346;50.820;16.274;2023-02-02T00:44:40;3.70;99.90
36442;DHT22;64346;50.820;16.274;2023-02-02T00:47:12;3.70;99.90
36442;DHT22;64346;50.820;16.274;2023-02-02T00:49:39;3.70;99.90
36442;DHT22;64346;50.820;16.274;2023-02-02T00:52:06;3.70;99.90
36442;DHT22;64346;50.820;16.274;2023-02-02T00:54:34;3.70;99.90
36442;DHT22;64346;50.820;16.274;2023-02-02T00:57:01;3.70;99.90
36442;DHT22;64346;50.820;16.274;2023-02-02T00:59:31;3.70;99.90
36442;DHT22;64346;50.820;16.274;2023-02-02T01:01:58;3.70;99.90
36442;DHT22;64346;50.820;16.274;2023-02-02T01:04:26;3.70;99.90
36442;DHT22;64346;50.820;16.274;2023-02-02T01:06:53;3.60;99.90
36442;DHT22;64346;50.820;16.274;2023-02-02T01:09:20;3.50;99.90
36442;DHT22;64346;50.820;16.274;2023-02-02T01:11:47;3.50;99.90
36442;DHT22;64346;50.820;16.274;2023-02-02T01:14:17;3.50;99.90
36442;DHT22;64346;50.820;16.274;2023-02-02T01:16:47;3.40;99.90
36442;DHT22;64346;50.820;16.274;2023-02-02T01:19:15;3.30;99.90
36442;DHT22;64346;50.820;16.274;2023-02-02T01:21:44;3.30;99.90
36442;DHT22;64346;50.820;16.274;2023-02-02T01:24:12;3.30;99.90
36442;DHT22;64346;50.820;16.274;2023-02-02T01:26:39;3.20;99.90
36442;DHT22;64346;50.820;16.274;2023-02-02T01:29:09;3.20;99.90
36442;DHT22;64346;50.820;16.274;2023-02-02T01:31:36;3.20;99.90
36442;DHT22;64346;50.820;16.274;2023-02-02T01:34:03;3.30;99.90
36442;DHT22;64346;50.820;16.274;2023-02-02T01:36:30;3.30;99.90
36442;DHT22;64346;50.820;16.274;2023-02-02T01:39:00;3.40;99.90
36442;DHT22;64346;50.820;16.274;2023-02-02T01:41:27;3.40;99.90
36442;DHT22;64346;50.820;16.274;2023-02-02T01:44:02;3.50;99.90
36442;DHT22;64346;50.820;16.274;2023-02-02T01:46:34;3.50;99.90
36442;DHT22;64346;50.820;16.274;2023-02-02T01:49:22;3.50;99.90
36442;DHT22;64346;50.820;16.274;2023-02-02T01:51:55;3.60;99.90
36442;DHT22;64346;50.820;16.274;2023-02-02T01:54:37;3.60;99.90
36442;DHT22;64346;50.820;16.274;2023-02-02T01:57:14;3.60;99.90
36442;DHT22;64346;50.820;16.274;2023-02-02T01:59:43;3.70;99.90
36442;DHT22;64346;50.820;16.274;2023-02-02T02:02:12;3.70;99.90
36442;DHT22;64346;50.820;16.274;2023-02-02T02:04:42;3.70;99.90
36442;DHT22;64346;50.820;16.274;2023-02-02T02:07:10;3.80;99.90
36442;DHT22;64346;50.820;16.274;2023-02-02T02:09:37;3.80;99.90
36442;DHT22;64346;50.820;16.274;2023-02-02T02:12:13;3.80;99.90
36442;DHT22;64346;50.820;16.274;2023-02-02T02:14:46;3.80;99.90
36442;DHT22;64346;50.820;16.274;2023-02-02T02:29:36;3.80;99.90
36442;DHT22;64346;50.820;16.274;2023-02-02T02:39:44;3.80;99.90
36442;DHT22;64346;50.820;16.274;2023-02-02T02:42:21;3.80;99.90
36442;DHT22;64346;50.820;16.274;2023-02-02T02:44:52;3.70;99.90
36442;DHT22;64346;50.820;16.274;2023-02-02T02:47:21;3.70;99.90
36442;DHT22;64346;50.820;16.274;2023-02-02T02:49:48;3.70;99.90
36442;DHT22;64346;50.820;16.274;2023-02-02T02:52:20;3.80;99.90
36442;DHT22;64346;50.820;16.274;2023-02-02T02:54:50;3.70;99.90
36442;DHT22;64346;50.820;16.274;2023-02-02T03:10:59;3.90;99.90
36442;DHT22;64346;50.820;16.274;2023-02-02T03:13:27;3.90;99.90
36442;DHT22;64346;50.820;16.274;2023-02-02T03:15:55;3.90;99.90
36442;DHT22;64346;50.820;16.274;2023-02-02T03:18:25;3.90;99.90
36442;DHT22;64346;50.820;16.274;2023-02-02T03:20:53;4.00;99.90
36442;DHT22;64346;50.820;16.274;2023-02-02T03:23:23;4.00;99.90
36442;DHT22;64346;50.820;16.274;2023-02-02T03:25:51;4.00;99.90
36442;DHT22;64346;50.820;16.274;2023-02-02T03:28:19;4.00;99.90
36442;DHT22;64346;50.820;16.274;2023-02-02T03:30:49;4.00;99.90
36442;DHT22;64346;50.820;16.274;2023-02-02T03:33:18;4.10;99.90
36442;DHT22;64346;50.820;16.274;2023-02-02T03:35:47;4.00;99.90
36442;DHT22;64346;50.820;16.274;2023-02-02T03:38:15;4.00;99.90
36442;DHT22;64346;50.820;16.274;2023-02-02T03:40:42;4.00;99.90
36442;DHT22;64346;50.820;16.274;2023-02-02T03:43:09;4.00;99.90
36442;DHT22;64346;50.820;16.274;2023-02-02T03:45:37;4.00;99.90
36442;DHT22;64346;50.820;16.274;2023-02-02T03:48:06;4.00;99.90
36442;DHT22;64346;50.820;16.274;2023-02-02T03:50:34;4.00;99.90
36442;DHT22;64346;50.820;16.274;2023-02-02T03:53:01;4.00;99.90
36442;DHT22;64346;50.820;16.274;2023-02-02T03:55:28;4.00;99.90
36442;DHT22;64346;50.820;16.274;2023-02-02T03:57:55;4.00;99.90
36442;DHT22;64346;50.820;16.274;2023-02-02T04:00:22;4.00;99.90
36442;DHT22;64346;50.820;16.274;2023-02-02T04:02:50;4.00;99.90
36442;DHT22;64346;50.820;16.274;2023-02-02T04:05:17;4.00;99.90
36442;DHT22;64346;50.820;16.274;2023-02-02T04:07:45;4.00;99.90
36442;DHT22;64346;50.820;16.274;2023-02-02T04:10:12;4.00;99.90
36442;DHT22;64346;50.820;16.274;2023-02-02T04:12:41;4.00;99.90
36442;DHT22;64346;50.820;16.274;2023-02-02T04:15:09;3.90;99.90
36442;DHT22;64346;50.820;16.274;2023-02-02T04:17:36;3.90;99.90
36442;DHT22;64346;50.820;16.274;2023-02-02T04:20:04;3.90;99.90
36442;DHT22;64346;50.820;16.274;2023-02-02T04:22:32;3.90;99.90
36442;DHT22;64346;50.820;16.274;2023-02-02T04:24:59;3.90;99.90
36442;DHT22;64346;50.820;16.274;2023-02-02T04:27:29;3.90;99.90
36442;DHT22;64346;50.820;16.274;2023-02-02T04:29:56;4.00;99.90
36442;DHT22;64346;50.820;16.274;2023-02-02T04:32:26;4.00;99.90
36442;DHT22;64346;50.820;16.274;2023-02-02T04:34:53;4.00;99.90
36442;DHT22;64346;50.820;16.274;2023-02-02T04:37:20;4.00;99.90
36442;DHT22;64346;50.820;16.274;2023-02-02T04:39:50;4.00;99.90
36442;DHT22;64346;50.820;16.274;2023-02-02T04:42:17;4.00;99.90
36442;DHT22;64346;50.820;16.274;2023-02-02T04:44:44;4.00;99.90
36442;DHT22;64346;50.820;16.274;2023-02-02T04:47:11;4.00;99.90
36442;DHT22;64346;50.820;16.274;2023-02-02T04:49:43;4.10;99.90
36442;DHT22;64346;50.820;16.274;2023-02-02T04:52:13;4.10;99.90
36442;DHT22;64346;50.820;16.274;2023-02-02T04:54:40;4.10;99.90
36442;DHT22;64346;50.820;16.274;2023-02-02T04:57:08;4.10;99.90
36442;DHT22;64346;50.820;16.274;2023-02-02T04:59:35;4.10;99.90
36442;DHT22;64346;50.820;16.274;2023-02-02T05:02:02;4.10;99.90
36442;DHT22;64346;50.820;16.274;2023-02-02T05:04:32;4.10;99.90
36442;DHT22;64346;50.820;16.274;2023-02-02T05:07:01;4.10;99.90
36442;DHT22;64346;50.820;16.274;2023-02-02T05:09:29;4.10;99.90
36442;DHT22;64346;50.820;16.274;2023-02-02T05:11:56;4.10;99.90
36442;DHT22;64346;50.820;16.274;2023-02-02T05:14:26;4.10;99.90
36442;DHT22;64346;50.820;16.274;2023-02-02T05:16:55;4.20;99.90
36442;DHT22;64346;50.820;16.274;2023-02-02T05:19:22;4.20;99.90
36442;DHT22;64346;50.820;16.274;2023-02-02T05:21:50;4.20;99.90
36442;DHT22;64346;50.820;16.274;2023-02-02T05:24:19;4.20;99.90
36442;DHT22;64346;50.820;16.274;2023-02-02T05:26:47;4.20;99.90
36442;DHT22;64346;50.820;16.274;2023-02-02T05:29:14;4.20;99.90
36442;DHT22;64346;50.820;16.274;2023-02-02T05:31:46;4.20;99.90
36442;DHT22;64346;50.820;16.274;2023-02-02T05:34:13;4.20;99.90
36442;DHT22;64346;50.820;16.274;2023-02-02T05:36:43;4.20;99.90
36442;DHT22;64346;50.820;16.274;2023-02-02T05:39:10;4.20;99.90
36442;DHT22;64346;50.820;16.274;2023-02-02T05:41:40;4.30;99.90
36442;DHT22;64346;50.820;16.274;2023-02-02T05:44:11;4.20;99.90
36442;DHT22;64346;50.820;16.274;2023-02-02T05:46:39;4.20;99.90
36442;DHT22;64346;50.820;16.274;2023-02-02T05:49:08;4.20;99.90
36442;DHT22;64346;50.820;16.274;2023-02-02T05:51:41;4.20;99.90
36442;DHT22;64346;50.820;16.274;2023-02-02T05:54:08;4.20;99.90
36442;DHT22;64346;50.820;16.274;2023-02-02T05:56:36;4.20;99.90
36442;DHT22;64346;50.820;16.274;2023-02-02T05:59:03;4.20;99.90
36442;DHT22;64346;50.820;16.274;2023-02-02T06:01:30;4.20;99.90
36442;DHT22;64346;50.820;16.274;2023-02-02T06:04:00;4.20;99.90
36442;DHT22;64346;50.820;16.274;2023-02-02T06:06:28;4.20;99.90
36442;DHT22;64346;50.820;16.274;2023-02-02T06:08:55;4.20;99.90
36442;DHT22;64346;50.820;16.274;2023-02-02T06:11:22;4.20;99.90
36442;DHT22;64346;50.820;16.274;2023-02-02T06:13:49;4.20;99.90
36442;DHT22;64346;50.820;16.274;2023-02-02T06:16:16;4.20;99.90
36442;DHT22;64346;50.820;16.274;2023-02-02T06:18:44;4.20;99.90
36442;DHT22;64346;50.820;16.274;2023-02-02T06:21:13;4.20;99.90
36442;DHT22;64346;50.820;16.274;2023-02-02T06:23:41;4.20;99.90
36442;DHT22;64346;50.820;16.274;2023-02-02T06:26:08;4.20;99.90
36442;DHT22;64346;50.820;16.274;2023-02-02T06:28:35;4.20;99.90
36442;DHT22;64346;50.820;16.274;2023-02-02T06:31:07;4.20;99.90
36442;DHT22;64346;50.820;16.274;2023-02-02T06:33:37;4.20;99.90
36442;DHT22;64346;50.820;16.274;2023-02-02T06:36:09;4.20;99.90
36442;DHT22;64346;50.820;16.274;2023-02-02T06:38:36;4.10;99.90
36442;DHT22;64346;50.820;16.274;2023-02-02T06:41:04;4.10;99.90
36442;DHT22;64346;50.820;16.274;2023-02-02T06:43:31;4.10;99.90
36442;DHT22;64346;50.820;16.274;2023-02-02T06:45:59;4.10;99.90
36442;DHT22;64346;50.820;16.274;2023-02-02T06:48:29;4.00;99.90
36442;DHT22;64346;50.820;16.274;2023-02-02T06:50:57;4.10;99.90
36442;DHT22;64346;50.820;16.274;2023-02-02T06:53:25;4.10;99.90
36442;DHT22;64346;50.820;16.274;2023-02-02T06:55:57;4.10;99.90
36442;DHT22;64346;50.820;16.274;2023-02-02T06:58:25;4.20;99.90
36442;DHT22;64346;50.820;16.274;2023-02-02T07:00:53;4.20;99.90
36442;DHT22;64346;50.820;16.274;2023-02-02T07:03:23;4.10;99.90
36442;DHT22;64346;50.820;16.274;2023-02-02T07:05:50;4.20;99.90
36442;DHT22;64346;50.820;16.274;2023-02-02T07:08:17;4.20;99.90
36442;DHT22;64346;50.820;16.274;2023-02-02T07:10:45;4.20;99.90
36442;DHT22;64346;50.820;16.274;2023-02-02T07:13:32;4.20;99.90
36442;DHT22;64346;50.820;16.274;2023-02-02T07:16:01;4.20;99.90
36442;DHT22;64346;50.820;16.274;2023-02-02T07:18:29;4.20;99.90
36442;DHT22;64346;50.820;16.274;2023-02-02T07:21:02;4.30;99.90
36442;DHT22;64346;50.820;16.274;2023-02-02T07:23:31;4.30;99.90
36442;DHT22;64346;50.820;16.274;2023-02-02T07:26:05;4.30;99.90
36442;DHT22;64346;50.820;16.274;2023-02-02T07:28:33;4.40;99.90
36442;DHT22;64346;50.820;16.274;2023-02-02T07:31:23;4.50;99.90
36442;DHT22;64346;50.820;16.274;2023-02-02T07:33:51;4.60;99.90
36442;DHT22;64346;50.820;16.274;2023-02-02T07:36:20;4.70;99.90
36442;DHT22;64346;50.820;16.274;2023-02-02T07:38:49;4.80;99.90
36442;DHT22;64346;50.820;16.274;2023-02-02T07:41:17;5.00;99.90
36442;DHT22;64346;50.820;16.274;2023-02-02T07:43:50;5.50;99.90
36442;DHT22;64346;50.820;16.274;2023-02-02T07:46:20;6.70;99.90
36442;DHT22;64346;50.820;16.274;2023-02-02T07:48:48;9.10;99.90
36442;DHT22;64346;50.820;16.274;2023-02-02T07:51:16;11.90;99.90
36442;DHT22;64346;50.820;16.274;2023-02-02T07:53:45;13.40;99.00
36442;DHT22;64346;50.820;16.274;2023-02-02T07:58:42;15.50;91.90
36442;DHT22;64346;50.820;16.274;2023-02-02T08:01:11;16.50;88.20
36442;DHT22;64346;50.820;16.274;2023-02-02T08:03:41;18.20;82.20
36442;DHT22;64346;50.820;16.274;2023-02-02T08:06:16;19.60;75.00
36442;DHT22;64346;50.820;16.274;2023-02-02T08:08:44;20.80;69.50
36442;DHT22;64346;50.820;16.274;2023-02-02T08:11:14;22.10;64.80
36442;DHT22;64346;50.820;16.274;2023-02-02T08:13:42;23.00;60.80
36442;DHT22;64346;50.820;16.274;2023-02-02T08:16:10;23.40;58.50
36442;DHT22;64346;50.820;16.274;2023-02-02T08:18:38;24.20;56.60
36442;DHT22;64346;50.820;16.274;2023-02-02T08:21:06;24.80;55.40
36442;DHT22;64346;50.820;16.274;2023-02-02T08:23:37;24.40;53.50
36442;DHT22;64346;50.820;16.274;2023-02-02T08:26:12;23.70;53.60
36442;DHT22;64346;50.820;16.274;2023-02-02T08:28:41;23.70;53.90
36442;DHT22;64346;50.820;16.274;2023-02-02T08:31:30;23.50;53.40
36442;DHT22;64346;50.820;16.274;2023-02-02T08:33:59;23.80;53.10
36442;DHT22;64346;50.820;16.274;2023-02-02T08:36:28;24.10;52.10
36442;DHT22;64346;50.820;16.274;2023-02-02T08:39:04;24.10;52.30
36442;DHT22;64346;50.820;16.274;2023-02-02T08:41:34;24.60;52.30
36442;DHT22;64346;50.820;16.274;2023-02-02T08:44:04;25.30;50.50
36442;DHT22;64346;50.820;16.274;2023-02-02T08:46:32;25.40;50.20
36442;DHT22;64346;50.820;16.274;2023-02-02T08:48:59;25.50;49.90
36442;DHT22;64346;50.820;16.274;2023-02-02T08:51:29;25.70;50.20
36442;DHT22;64346;50.820;16.274;2023-02-02T08:53:56;26.40;49.40
36442;DHT22;64346;50.820;16.274;2023-02-02T08:56:23;26.30;49.90
36442;DHT22;64346;50.820;16.274;2023-02-02T08:58:55;26.40;49.70
36442;DHT22;64346;50.820;16.274;2023-02-02T09:03:59;26.60;48.40
36442;DHT22;64346;50.820;16.274;2023-02-02T09:06:30;26.30;48.50
36442;DHT22;64346;50.820;16.274;2023-02-02T09:08:58;26.20;48.90
36442;DHT22;64346;50.820;16.274;2023-02-02T09:11:26;26.50;48.90
36442;DHT22;64346;50.820;16.274;2023-02-02T09:13:55;26.90;47.90
36442;DHT22;64346;50.820;16.274;2023-02-02T09:16:28;26.80;47.50
36442;DHT22;64346;50.820;16.274;2023-02-02T09:18:56;27.30;47.90
36442;DHT22;64346;50.820;16.274;2023-02-02T09:21:26;28.00;46.80
36442;DHT22;64346;50.820;16.274;2023-02-02T09:23:56;28.00;46.40
36442;DHT22;64346;50.820;16.274;2023-02-02T09:26:25;28.30;45.70
36442;DHT22;64346;50.820;16.274;2023-02-02T09:28:59;28.80;45.40
36442;DHT22;64346;50.820;16.274;2023-02-02T09:31:27;29.40;45.30
36442;DHT22;64346;50.820;16.274;2023-02-02T09:33:58;30.00;45.00
36442;DHT22;64346;50.820;16.274;2023-02-02T09:36:25;30.00;43.30
36442;DHT22;64346;50.820;16.274;2023-02-02T09:38:53;30.00;44.00
36442;DHT22;64346;50.820;16.274;2023-02-02T09:41:28;29.10;43.80
36442;DHT22;64346;50.820;16.274;2023-02-02T09:52:45;27.10;45.10
36442;DHT22;64346;50.820;16.274;2023-02-02T09:55:18;27.80;44.20
36442;DHT22;64346;50.820;16.274;2023-02-02T09:57:56;28.00;44.20
36442;DHT22;64346;50.820;16.274;2023-02-02T10:00:36;28.10;43.70
36442;DHT22;64346;50.820;16.274;2023-02-02T10:08:52;29.30;43.30
36442;DHT22;64346;50.820;16.274;2023-02-02T10:11:25;30.00;41.90
36442;DHT22;64346;50.820;16.274;2023-02-02T10:13:57;30.00;41.90
36442;DHT22;64346;50.820;16.274;2023-02-02T10:16:26;30.00;41.90
36442;DHT22;64346;50.820;16.274;2023-02-02T10:19:05;30.00;41.20
36442;DHT22;64346;50.820;16.274;2023-02-02T10:21:56;30.00;42.00
36442;DHT22;64346;50.820;16.274;2023-02-02T10:24:28;29.90;41.60
36442;DHT22;64346;50.820;16.274;2023-02-02T10:27:04;30.10;41.30
36442;DHT22;64346;50.820;16.274;2023-02-02T10:45:42;30.10;41.80
36442;DHT22;64346;50.820;16.274;2023-02-02T10:48:25;30.00;41.10
36442;DHT22;64346;50.820;16.274;2023-02-02T10:50:58;29.40;41.20
36442;DHT22;64346;50.820;16.274;2023-02-02T10:53:27;28.60;41.10
36442;DHT22;64346;50.820;16.274;2023-02-02T10:56:11;28.70;41.10
36442;DHT22;64346;50.820;16.274;2023-02-02T10:58:49;28.60;41.50
36442;DHT22;64346;50.820;16.274;2023-02-02T11:01:18;28.10;41.10
36442;DHT22;64346;50.820;16.274;2023-02-02T11:03:48;27.90;41.20
36442;DHT22;64346;50.820;16.274;2023-02-02T11:06:20;27.80;41.00
36442;DHT22;64346;50.820;16.274;2023-02-02T11:08:49;27.70;41.30
36442;DHT22;64346;50.820;16.274;2023-02-02T11:11:32;27.60;41.00
36442;DHT22;64346;50.820;16.274;2023-02-02T11:16:43;27.00;41.40
36442;DHT22;64346;50.820;16.274;2023-02-02T11:21:45;26.20;42.00
36442;DHT22;64346;50.820;16.274;2023-02-02T11:24:46;24.60;43.70
36442;DHT22;64346;50.820;16.274;2023-02-02T11:27:20;23.10;45.10
36442;DHT22;64346;50.820;16.274;2023-02-02T11:29:50;20.90;48.80
36442;DHT22;64346;50.820;16.274;2023-02-02T11:37:32;22.20;48.30
36442;DHT22;64346;50.820;16.274;2023-02-02T11:43:04;22.10;46.40
36442;DHT22;64346;50.820;16.274;2023-02-02T11:45:40;20.00;48.40
36442;DHT22;64346;50.820;16.274;2023-02-02T11:48:16;17.90;51.20
36442;DHT22;64346;50.820;16.274;2023-02-02T11:50:52;15.50;55.00
36442;DHT22;64346;50.820;16.274;2023-02-02T11:53:23;13.50;58.70
36442;DHT22;64346;50.820;16.274;2023-02-02T11:55:52;12.60;61.20
36442;DHT22;64346;50.820;16.274;2023-02-02T12:00:56;11.70;64.30
36442;DHT22;64346;50.820;16.274;2023-02-02T12:06:20;10.80;66.70
36442;DHT22;64346;50.820;16.274;2023-02-02T12:08:48;10.50;68.60
36442;DHT22;64346;50.820;16.274;2023-02-02T12:22:38;9.70;74.80
36442;DHT22;64346;50.820;16.274;2023-02-02T12:41:55;8.00;85.80
36442;DHT22;64346;50.820;16.274;2023-02-02T12:44:56;7.90;87.30
36442;DHT22;64346;50.820;16.274;2023-02-02T12:55:47;7.50;92.20
36442;DHT22;64346;50.820;16.274;2023-02-02T13:09:32;7.60;99.90
36442;DHT22;64346;50.820;16.274;2023-02-02T13:12:10;7.60;99.90
36442;DHT22;64346;50.820;16.274;2023-02-02T13:14:43;7.50;99.90
36442;DHT22;64346;50.820;16.274;2023-02-02T13:17:40;7.40;99.90
36442;DHT22;64346;50.820;16.274;2023-02-02T13:20:41;7.30;99.90
36442;DHT22;64346;50.820;16.274;2023-02-02T13:23:31;7.20;99.90
36442;DHT22;64346;50.820;16.274;2023-02-02T13:26:10;7.10;99.90
36442;DHT22;64346;50.820;16.274;2023-02-02T13:37:19;7.20;99.90
36442;DHT22;64346;50.820;16.274;2023-02-02T13:40:01;7.40;99.90
36442;DHT22;64346;50.820;16.274;2023-02-02T13:43:26;7.50;99.90
36442;DHT22;64346;50.820;16.274;2023-02-02T13:56:38;7.00;99.90
36442;DHT22;64346;50.820;16.274;2023-02-02T14:01:52;6.00;99.90
36442;DHT22;64346;50.820;16.274;2023-02-02T14:04:23;5.80;99.90
36442;DHT22;64346;50.820;16.274;2023-02-02T14:06:56;5.70;99.90
36442;DHT22;64346;50.820;16.274;2023-02-02T14:09:27;5.80;99.90
36442;DHT22;64346;50.820;16.274;2023-02-02T14:11:58;6.00;99.90
36442;DHT22;64346;50.820;16.274;2023-02-02T14:14:26;6.00;99.90
36442;DHT22;64346;50.820;16.274;2023-02-02T14:16:54;5.90;99.90
36442;DHT22;64346;50.820;16.274;2023-02-02T14:22:15;5.50;99.90
36442;DHT22;64346;50.820;16.274;2023-02-02T14:24:48;5.40;99.90
36442;DHT22;64346;50.820;16.274;2023-02-02T14:47:46;5.40;99.90
36442;DHT22;64346;50.820;16.274;2023-02-02T14:50:31;5.40;99.90
36442;DHT22;64346;50.820;16.274;2023-02-02T14:53:54;5.40;99.90
36442;DHT22;64346;50.820;16.274;2023-02-02T14:56:19;5.40;99.90
36442;DHT22;64346;50.820;16.274;2023-02-02T14:58:57;5.10;99.90
36442;DHT22;64346;50.820;16.274;2023-02-02T15:01:32;5.00;99.90
36442;DHT22;64346;50.820;16.274;2023-02-02T15:06:47;4.60;99.90
36442;DHT22;64346;50.820;16.274;2023-02-02T15:19:47;4.20;99.90
36442;DHT22;64346;50.820;16.274;2023-02-02T15:24:46;4.20;99.90
36442;DHT22;64346;50.820;16.274;2023-02-02T15:27:17;4.20;99.90
36442;DHT22;64346;50.820;16.274;2023-02-02T15:29:49;4.20;99.90
36442;DHT22;64346;50.820;16.274;2023-02-02T15:32:23;4.20;99.90
36442;DHT22;64346;50.820;16.274;2023-02-02T15:34:53;4.20;99.90
36442;DHT22;64346;50.820;16.274;2023-02-02T15:37:29;4.20;99.90
36442;DHT22;64346;50.820;16.274;2023-02-02T15:40:01;4.30;99.90
36442;DHT22;64346;50.820;16.274;2023-02-02T15:42:45;4.20;99.90
36442;DHT22;64346;50.820;16.274;2023-02-02T15:45:35;4.10;99.90
36442;DHT22;64346;50.820;16.274;2023-02-02T15:50:49;4.20;99.90
36442;DHT22;64346;50.820;16.274;2023-02-02T15:53:18;4.20;99.90
36442;DHT22;64346;50.820;16.274;2023-02-02T15:55:46;4.10;99.90
36442;DHT22;64346;50.820;16.274;2023-02-02T15:58:27;4.10;99.90
36442;DHT22;64346;50.820;16.274;2023-02-02T16:01:00;4.10;99.90
36442;DHT22;64346;50.820;16.274;2023-02-02T16:03:36;4.10;99.90
36442;DHT22;64346;50.820;16.274;2023-02-02T16:06:06;4.10;99.90
36442;DHT22;64346;50.820;16.274;2023-02-02T16:08:37;4.00;99.90
36442;DHT22;64346;50.820;16.274;2023-02-02T16:11:07;4.00;99.90
36442;DHT22;64346;50.820;16.274;2023-02-02T16:13:35;4.00;99.90
36442;DHT22;64346;50.820;16.274;2023-02-02T16:16:50;4.30;99.90
36442;DHT22;64346;50.820;16.274;2023-02-02T16:21:39;4.60;99.90
36442;DHT22;64346;50.820;16.274;2023-02-02T16:24:14;4.60;99.90
36442;DHT22;64346;50.820;16.274;2023-02-02T16:26:43;4.60;99.90
36442;DHT22;64346;50.820;16.274;2023-02-02T16:29:11;4.50;99.90
36442;DHT22;64346;50.820;16.274;2023-02-02T16:31:39;4.30;99.90
36442;DHT22;64346;50.820;16.274;2023-02-02T16:34:17;4.10;99.90
36442;DHT22;64346;50.820;16.274;2023-02-02T16:37:13;4.00;99.90
36442;DHT22;64346;50.820;16.274;2023-02-02T16:39:41;3.80;99.90
36442;DHT22;64346;50.820;16.274;2023-02-02T16:42:30;3.70;99.90
36442;DHT22;64346;50.820;16.274;2023-02-02T16:44:59;3.50;99.90
36442;DHT22;64346;50.820;16.274;2023-02-02T16:52:54;3.20;99.90
36442;DHT22;64346;50.820;16.274;2023-02-02T16:55:22;3.10;99.90
36442;DHT22;64346;50.820;16.274;2023-02-02T16:57:50;3.10;99.90
36442;DHT22;64346;50.820;16.274;2023-02-02T17:00:26;3.00;99.90
36442;DHT22;64346;50.820;16.274;2023-02-02T17:03:16;2.90;99.90
36442;DHT22;64346;50.820;16.274;2023-02-02T17:05:50;2.90;99.90
36442;DHT22;64346;50.820;16.274;2023-02-02T17:08:30;2.80;99.90
36442;DHT22;64346;50.820;16.274;2023-02-02T17:14:18;2.70;99.90
36442;DHT22;64346;50.820;16.274;2023-02-02T17:16:46;2.70;99.90
36442;DHT22;64346;50.820;16.274;2023-02-02T17:19:13;2.80;99.90
36442;DHT22;64346;50.820;16.274;2023-02-02T17:21:40;2.80;99.90
36442;DHT22;64346;50.820;16.274;2023-02-02T17:24:08;2.90;99.90
36442;DHT22;64346;50.820;16.274;2023-02-02T17:26:37;3.00;99.90
36442;DHT22;64346;50.820;16.274;2023-02-02T17:29:04;3.10;99.90
36442;DHT22;64346;50.820;16.274;2023-02-02T17:31:31;3.20;99.90
36442;DHT22;64346;50.820;16.274;2023-02-02T17:33:58;3.30;99.90
36442;DHT22;64346;50.820;16.274;2023-02-02T17:36:28;3.40;99.90
36442;DHT22;64346;50.820;16.274;2023-02-02T17:38:55;3.60;99.90
36442;DHT22;64346;50.820;16.274;2023-02-02T17:41:23;3.60;99.90
36442;DHT22;64346;50.820;16.274;2023-02-02T17:43:52;3.70;99.90
36442;DHT22;64346;50.820;16.274;2023-02-02T17:46:23;3.80;99.90
36442;DHT22;64346;50.820;16.274;2023-02-02T17:48:50;3.80;99.90
36442;DHT22;64346;50.820;16.274;2023-02-02T17:51:19;3.80;99.90
36442;DHT22;64346;50.820;16.274;2023-02-02T17:53:47;3.80;99.90
36442;DHT22;64346;50.820;16.274;2023-02-02T17:56:14;3.70;99.90
36442;DHT22;64346;50.820;16.274;2023-02-02T17:58:44;3.80;99.90
36442;DHT22;64346;50.820;16.274;2023-02-02T18:01:14;3.90;99.90
36442;DHT22;64346;50.820;16.274;2023-02-02T18:03:43;3.90;99.90
36442;DHT22;64346;50.820;16.274;2023-02-02T18:06:11;3.90;99.90
36442;DHT22;64346;50.820;16.274;2023-02-02T18:08:39;3.80;99.90
36442;DHT22;64346;50.820;16.274;2023-02-02T18:11:10;3.80;99.90
36442;DHT22;64346;50.820;16.274;2023-02-02T18:13:37;3.70;99.90
36442;DHT22;64346;50.820;16.274;2023-02-02T18:16:06;3.70;99.90
36442;DHT22;64346;50.820;16.274;2023-02-02T18:18:36;3.70;99.90
36442;DHT22;64346;50.820;16.274;2023-02-02T18:21:11;3.60;99.90
36442;DHT22;64346;50.820;16.274;2023-02-02T18:23:40;3.60;99.90
36442;DHT22;64346;50.820;16.274;2023-02-02T18:26:22;3.60;99.90
36442;DHT22;64346;50.820;16.274;2023-02-02T18:28:52;3.60;99.90
36442;DHT22;64346;50.820;16.274;2023-02-02T18:31:21;3.60;99.90
36442;DHT22;64346;50.820;16.274;2023-02-02T18:33:48;3.50;99.90
36442;DHT22;64346;50.820;16.274;2023-02-02T18:36:18;3.60;99.90
36442;DHT22;64346;50.820;16.274;2023-02-02T18:38:47;3.60;99.90
36442;DHT22;64346;50.820;16.274;2023-02-02T18:41:16;3.50;99.90
36442;DHT22;64346;50.820;16.274;2023-02-02T18:43:43;3.50;99.90
36442;DHT22;64346;50.820;16.274;2023-02-02T18:46:12;3.40;99.90
36442;DHT22;64346;50.820;16.274;2023-02-02T18:48:40;3.50;99.90
36442;DHT22;64346;50.820;16.274;2023-02-02T18:51:15;3.50;99.90
36442;DHT22;64346;50.820;16.274;2023-02-02T18:53:42;3.50;99.90
36442;DHT22;64346;50.820;16.274;2023-02-02T18:56:12;3.50;99.90
36442;DHT22;64346;50.820;16.274;2023-02-02T18:58:40;3.60;99.90
36442;DHT22;64346;50.820;16.274;2023-02-02T19:01:14;3.60;99.90
36442;DHT22;64346;50.820;16.274;2023-02-02T19:03:46;3.50;99.90
36442;DHT22;64346;50.820;16.274;2023-02-02T19:06:13;3.60;99.90
36442;DHT22;64346;50.820;16.274;2023-02-02T19:08:40;3.70;99.90
36442;DHT22;64346;50.820;16.274;2023-02-02T19:11:14;3.70;99.90
36442;DHT22;64346;50.820;16.274;2023-02-02T19:13:43;3.60;99.90
36442;DHT22;64346;50.820;16.274;2023-02-02T19:16:32;3.50;99.90
36442;DHT22;64346;50.820;16.274;2023-02-02T19:19:06;3.40;99.90
36442;DHT22;64346;50.820;16.274;2023-02-02T19:21:36;3.30;99.90
36442;DHT22;64346;50.820;16.274;2023-02-02T19:24:09;3.10;99.90